Time;durP1;ratioP1;P1;durP2;ratioP2;P2;SDS_P1;SDS_P2;PMS_P1;PMS_P2;Temp;Humidity;BMP_temperature;BMP_pressure;BME280_temperature;BME280_humidity;BME280_pressure;Samples;Min_cycle;Max_cycle;Signal;HPM_P1;HPM_P2
2023/08/25 00:01:50;;;;;;;10.43;6.00;;;19.70;1.00;;;;;;4920689;29;20218;-87
2023/08/25 00:04:16;;;;;;;9.77;6.87;;;19.70;1.00;;;;;;4932456;29;20715;-85
2023/08/25 00:06:41;;;;;;;10.00;6.57;;;19.70;1.00;;;;;;4933735;29;20188;-88
2023/08/25 00:09:09;;;;;;;7.33;5.00;;;19.70;1.00;;;;;;4932606;29;20215;-88
2023/08/25 00:11:34;;;;;;;8.87;6.13;;;19.70;1.00;;;;;;4945119;28;20215;-88
2023/08/25 00:14:00;;;;;;;11.80;6.00;;;19.70;1.00;;;;;;4921134;29;20443;-87
2023/08/25 00:16:26;;;;;;;10.93;5.57;;;19.70;1.00;;;;;;4930883;29;20204;-87
2023/08/25 00:18:51;;;;;;;12.80;6.33;;;19.70;1.00;;;;;;4928781;29;20382;-88
2023/08/25 00:21:17;;;;;;;10.27;5.30;;;19.70;1.00;;;;;;4927945;29;20218;-88
2023/08/25 00:23:42;;;;;;;9.13;5.80;;;19.70;1.00;;;;;;4933852;29;20250;-89
2023/08/25 00:26:08;;;;;;;7.57;5.00;;;19.70;1.00;;;;;;4935146;29;20220;-87
2023/08/25 00:28:33;;;;;;;9.00;5.63;;;19.70;1.00;;;;;;4930362;29;20192;-88
2023/08/25 00:30:59;;;;;;;7.20;5.00;;;19.70;1.00;;;;;;4934491;28;20218;-88
2023/08/25 00:33:25;;;;;;;9.70;5.20;;;19.70;1.00;;;;;;4933347;29;20230;-88
2023/08/25 00:35:50;;;;;;;9.60;5.13;;;19.70;1.00;;;;;;4934135;29;20752;-87
2023/08/25 00:38:16;;;;;;;10.10;5.47;;;19.70;1.00;;;;;;4934394;29;20323;-87
2023/08/25 00:40:42;;;;;;;9.00;5.40;;;19.70;1.00;;;;;;4931198;29;20656;-88
2023/08/25 00:43:07;;;;;;;6.27;4.27;;;19.70;1.00;;;;;;4934554;29;20192;-87
2023/08/25 00:45:37;;;;;;;5.00;4.50;;;19.70;1.00;;;;;;4932251;29;20189;-88
2023/08/25 00:48:03;;;;;;;11.70;4.53;;;19.70;1.00;;;;;;4926862;29;20187;-88
2023/08/25 00:50:29;;;;;;;6.00;4.20;;;19.70;1.00;;;;;;4929388;29;20819;-88
2023/08/25 00:52:55;;;;;;;11.00;4.80;;;19.70;1.00;;;;;;4923727;29;20444;-87
2023/08/25 00:55:21;;;;;;;6.77;4.70;;;19.70;1.00;;;;;;4946014;28;20444;-86
2023/08/25 00:57:47;;;;;;;7.97;4.57;;;19.80;1.00;;;;;;4930208;29;20567;-87
2023/08/25 01:00:13;;;;;;;7.50;4.00;;;19.70;1.00;;;;;;4930692;29;20197;-88
2023/08/25 01:02:39;;;;;;;11.60;4.50;;;19.80;1.00;;;;;;4924607;29;20490;-87
2023/08/25 01:05:05;;;;;;;6.87;4.83;;;19.80;1.00;;;;;;4924831;29;20881;-88
2023/08/25 01:07:31;;;;;;;7.67;4.17;;;19.80;1.00;;;;;;4920550;28;20194;-88
2023/08/25 01:09:57;;;;;;;8.00;3.93;;;19.80;1.00;;;;;;4926275;29;20479;-88
2023/08/25 01:12:35;;;;;;;5.50;4.50;;;19.80;1.00;;;;;;4932426;29;20228;-86
2023/08/25 01:15:12;;;;;;;7.60;5.40;;;19.80;1.00;;;;;;4926937;29;20188;-87
2023/08/25 01:17:44;;;;;;;9.80;4.57;;;19.80;1.00;;;;;;4929544;29;20464;-88
2023/08/25 01:20:11;;;;;;;13.40;5.20;;;19.80;1.00;;;;;;4916139;29;20438;-88
2023/08/25 01:22:50;;;;;;;10.03;4.47;;;19.80;1.00;;;;;;4929252;29;20469;-86
2023/08/25 01:25:25;;;;;;;12.13;3.77;;;19.80;1.00;;;;;;4921157;29;21050;-88
2023/08/25 01:27:51;;;;;;;6.87;4.17;;;19.80;1.00;;;;;;4923677;29;20469;-88
2023/08/25 01:30:17;;;;;;;6.83;4.50;;;19.80;1.00;;;;;;4933470;29;20538;-87
2023/08/25 01:32:43;;;;;;;6.30;4.50;;;19.80;1.00;;;;;;4928955;29;21060;-88
2023/08/25 01:35:14;;;;;;;6.67;4.40;;;19.80;1.00;;;;;;4928629;29;20217;-87
2023/08/25 01:37:45;;;;;;;5.50;3.87;;;19.80;1.00;;;;;;4922527;29;20531;-87
2023/08/25 01:40:20;;;;;;;9.03;3.87;;;19.80;1.00;;;;;;4919432;29;20795;-86
2023/08/25 01:42:49;;;;;;;6.60;3.80;;;19.80;1.00;;;;;;4929778;29;21088;-87
2023/08/25 01:45:17;;;;;;;8.00;3.90;;;19.80;1.00;;;;;;4930551;29;20451;-87
2023/08/25 01:47:46;;;;;;;8.60;4.10;;;19.80;1.00;;;;;;4928016;29;20449;-87
2023/08/25 01:50:14;;;;;;;6.37;3.80;;;19.80;1.00;;;;;;4933050;29;20459;-87
2023/08/25 01:52:40;;;;;;;5.80;4.10;;;19.70;1.00;;;;;;4924547;28;20496;-86
2023/08/25 01:55:07;;;;;;;4.87;3.63;;;19.70;1.00;;;;;;4927627;29;20455;-87
2023/08/25 01:57:33;;;;;;;5.10;3.80;;;19.70;1.00;;;;;;4933271;29;20965;-85
2023/08/25 01:59:58;;;;;;;6.10;3.80;;;19.70;1.00;;;;;;4928966;29;20443;-86
2023/08/25 02:02:24;;;;;;;11.50;4.00;;;19.70;1.00;;;;;;4927234;28;20224;-87
2023/08/25 02:04:49;;;;;;;7.67;3.80;;;19.60;1.00;;;;;;4916243;29;20206;-87
2023/08/25 02:07:15;;;;;;;7.00;3.93;;;19.60;1.00;;;;;;4931258;29;20224;-87
2023/08/25 02:09:41;;;;;;;5.07;4.00;;;19.60;1.00;;;;;;4928986;29;20206;-86
2023/08/25 02:12:07;;;;;;;6.23;3.33;;;19.60;1.00;;;;;;4928250;29;20212;-87
2023/08/25 02:14:32;;;;;;;6.50;3.40;;;19.60;1.00;;;;;;4926430;29;20448;-87
2023/08/25 02:16:58;;;;;;;8.17;3.57;;;19.60;1.00;;;;;;4924484;29;20190;-85
2023/08/25 02:19:23;;;;;;;6.33;3.67;;;19.50;1.00;;;;;;4930593;29;20200;-87
2023/08/25 02:21:49;;;;;;;9.33;3.40;;;19.60;1.00;;;;;;4921805;29;20263;-85
2023/08/25 02:24:14;;;;;;;15.20;4.47;;;19.60;1.00;;;;;;4932541;29;20268;-86
2023/08/25 02:26:40;;;;;;;6.83;4.00;;;19.60;1.00;;;;;;4924380;29;20190;-87
2023/08/25 02:29:06;;;;;;;8.40;3.83;;;19.50;1.00;;;;;;4925212;29;20196;-87
2023/08/25 02:31:31;;;;;;;6.50;4.40;;;19.50;1.00;;;;;;4929083;29;20268;-87
2023/08/25 02:33:57;;;;;;;6.30;4.10;;;19.50;1.00;;;;;;4930062;29;20509;-87
2023/08/25 02:36:22;;;;;;;7.17;4.37;;;19.50;1.00;;;;;;4925546;29;20212;-88
2023/08/25 02:38:48;;;;;;;8.67;3.70;;;19.50;1.00;;;;;;4932511;29;20300;-88
2023/08/25 02:41:14;;;;;;;5.73;3.67;;;19.50;1.00;;;;;;4929004;29;20211;-86
2023/08/25 02:43:39;;;;;;;7.70;3.90;;;19.50;1.00;;;;;;4932217;29;20184;-87
2023/08/25 02:46:05;;;;;;;4.57;3.87;;;19.50;1.00;;;;;;4924486;29;20203;-88
2023/08/25 02:48:30;;;;;;;17.20;4.60;;;19.50;1.00;;;;;;4919179;29;20272;-87
2023/08/25 02:50:56;;;;;;;5.30;3.90;;;19.50;1.00;;;;;;4923463;29;20306;-87
2023/08/25 02:53:22;;;;;;;5.10;3.43;;;19.50;1.00;;;;;;4932835;29;20201;-87
2023/08/25 02:55:47;;;;;;;7.07;4.00;;;19.40;1.00;;;;;;4930029;29;20565;-88
2023/08/25 02:58:13;;;;;;;8.70;3.83;;;19.40;1.00;;;;;;4924503;29;20231;-87
2023/08/25 03:00:38;;;;;;;7.07;3.97;;;19.40;1.00;;;;;;4931522;29;20208;-87
2023/08/25 03:03:04;;;;;;;5.80;4.00;;;19.40;1.00;;;;;;4922442;29;20593;-87
2023/08/25 03:05:33;;;;;;;10.20;3.93;;;19.40;1.00;;;;;;4928811;29;20249;-87
2023/08/25 03:07:58;;;;;;;5.30;3.33;;;19.40;1.00;;;;;;4925017;29;20199;-87
2023/08/25 03:10:24;;;;;;;11.93;3.70;;;19.30;1.00;;;;;;4931531;29;20511;-87
2023/08/25 03:12:50;;;;;;;10.63;3.50;;;19.30;1.00;;;;;;4929025;29;20209;-88
2023/08/25 03:15:15;;;;;;;8.00;4.27;;;19.30;1.00;;;;;;4926501;29;20655;-88
2023/08/25 03:17:41;;;;;;;9.13;4.50;;;19.30;1.00;;;;;;4928364;29;20212;-87
2023/08/25 03:20:07;;;;;;;5.87;3.93;;;19.20;1.00;;;;;;4926936;29;20189;-88
2023/08/25 03:22:33;;;;;;;8.20;4.63;;;19.20;1.00;;;;;;4935703;29;20215;-85
2023/08/25 03:24:59;;;;;;;6.80;4.60;;;19.20;1.00;;;;;;4925305;29;20445;-87
2023/08/25 03:27:24;;;;;;;5.43;3.90;;;19.20;1.00;;;;;;4936718;29;20193;-87
2023/08/25 03:29:50;;;;;;;5.67;3.80;;;19.20;1.00;;;;;;4931143;29;20188;-87
2023/08/25 03:32:15;;;;;;;4.73;4.33;;;19.20;1.00;;;;;;4927537;29;21569;-86
2023/08/25 03:34:41;;;;;;;4.60;3.27;;;19.20;1.00;;;;;;4929710;29;20278;-87
2023/08/25 03:37:07;;;;;;;6.70;4.37;;;19.20;1.00;;;;;;4924958;29;20187;-88
2023/08/25 03:39:33;;;;;;;5.17;4.17;;;19.20;1.00;;;;;;4928823;29;20181;-87
2023/08/25 03:41:58;;;;;;;4.20;3.30;;;19.20;1.00;;;;;;4929702;29;20205;-87
2023/08/25 03:44:24;;;;;;;5.70;3.70;;;19.20;1.00;;;;;;4933949;29;20511;-86
2023/08/25 03:46:49;;;;;;;4.63;3.30;;;19.20;1.00;;;;;;4922169;29;20225;-87
2023/08/25 03:49:15;;;;;;;6.13;4.27;;;19.20;1.00;;;;;;4927326;29;20658;-88
2023/08/25 03:51:40;;;;;;;8.87;4.40;;;19.10;1.00;;;;;;4931351;29;20216;-87
2023/08/25 03:54:06;;;;;;;7.20;3.77;;;19.10;1.00;;;;;;4930218;29;20201;-87
2023/08/25 03:56:32;;;;;;;6.60;4.10;;;19.20;1.00;;;;;;4930819;29;20635;-88
2023/08/25 03:58:57;;;;;;;4.33;3.93;;;19.10;1.00;;;;;;4931382;29;20209;-87
2023/08/25 04:01:23;;;;;;;6.70;4.67;;;19.20;1.00;;;;;;4928255;29;20481;-86
2023/08/25 04:03:49;;;;;;;7.10;4.03;;;19.10;1.00;;;;;;4936458;29;20185;-87
2023/08/25 04:06:14;;;;;;;7.77;3.90;;;19.10;1.00;;;;;;4930624;29;20189;-87
2023/08/25 04:08:40;;;;;;;6.53;4.57;;;19.10;1.00;;;;;;4926965;29;20651;-87
2023/08/25 04:11:06;;;;;;;6.20;4.00;;;19.20;1.00;;;;;;4925627;29;20656;-87
2023/08/25 04:13:32;;;;;;;6.10;4.30;;;19.20;1.00;;;;;;4928645;29;20210;-88
2023/08/25 04:15:58;;;;;;;6.40;4.20;;;19.20;1.00;;;;;;4929797;29;20441;-88
2023/08/25 04:18:25;;;;;;;7.53;4.70;;;19.20;1.00;;;;;;4927852;28;20211;-87
2023/08/25 04:20:50;;;;;;;4.90;4.00;;;19.20;1.00;;;;;;4924292;29;20837;-88
2023/08/25 04:23:16;;;;;;;7.20;4.60;;;19.20;1.00;;;;;;4930118;29;20425;-87
2023/08/25 04:25:42;;;;;;;7.50;4.63;;;19.20;1.00;;;;;;4942736;29;20601;-87
2023/08/25 04:28:07;;;;;;;4.57;4.10;;;19.10;1.00;;;;;;4928877;28;20203;-85
2023/08/25 04:30:33;;;;;;;6.90;3.90;;;19.10;1.00;;;;;;4931009;29;20189;-88
2023/08/25 04:32:59;;;;;;;9.80;4.10;;;19.10;1.00;;;;;;4919048;29;20201;-87
2023/08/25 04:35:24;;;;;;;9.33;4.47;;;19.10;1.00;;;;;;4928826;29;20542;-87
2023/08/25 04:37:50;;;;;;;7.80;4.50;;;19.10;1.00;;;;;;4932238;29;20245;-88
2023/08/25 04:40:17;;;;;;;9.43;4.77;;;19.10;1.00;;;;;;4927985;29;20240;-87
2023/08/25 04:42:43;;;;;;;6.03;4.60;;;19.00;1.00;;;;;;4931140;29;20471;-87
2023/08/25 04:45:10;;;;;;;6.67;4.77;;;19.00;1.00;;;;;;4934128;29;20445;-85
2023/08/25 04:47:36;;;;;;;9.23;4.80;;;19.00;1.00;;;;;;4934164;29;20460;-87
2023/08/25 04:50:03;;;;;;;6.40;4.73;;;19.00;1.00;;;;;;4928512;29;20445;-87
2023/08/25 04:52:29;;;;;;;13.37;4.70;;;18.90;1.00;;;;;;4930539;29;20224;-86
2023/08/25 04:54:55;;;;;;;5.43;4.90;;;18.90;1.00;;;;;;4932662;29;20998;-86
2023/08/25 04:57:21;;;;;;;5.83;4.60;;;18.90;1.00;;;;;;4933074;29;20463;-88
2023/08/25 04:59:46;;;;;;;6.03;5.10;;;19.00;1.00;;;;;;4926579;29;20189;-87
2023/08/25 05:02:13;;;;;;;5.10;4.60;;;19.00;1.00;;;;;;4931793;29;20223;-87
2023/08/25 05:04:38;;;;;;;6.93;4.63;;;19.00;1.00;;;;;;4933424;29;20188;-87
2023/08/25 05:07:04;;;;;;;6.50;5.70;;;19.10;1.00;;;;;;4927667;29;20425;-87
2023/08/25 05:09:29;;;;;;;7.13;5.03;;;19.10;1.00;;;;;;4928909;29;20178;-87
2023/08/25 05:11:55;;;;;;;8.60;6.00;;;19.20;1.00;;;;;;4931226;29;20229;-87
2023/08/25 05:14:20;;;;;;;5.87;4.33;;;19.30;1.00;;;;;;4925502;29;20286;-87
2023/08/25 05:16:46;;;;;;;7.90;5.10;;;19.30;1.00;;;;;;4926618;29;20255;-87
2023/08/25 05:19:13;;;;;;;6.70;5.67;;;19.40;1.00;;;;;;4931573;29;20265;-86
2023/08/25 05:21:39;;;;;;;13.20;5.80;;;19.50;1.00;;;;;;4932970;29;20279;-87
2023/08/25 05:24:19;;;;;;;7.17;4.77;;;19.60;1.00;;;;;;4927222;29;20452;-87
2023/08/25 05:26:51;;;;;;;7.53;5.27;;;19.70;1.00;;;;;;4928556;29;20256;-87
2023/08/25 05:29:29;;;;;;;10.83;5.77;;;19.90;1.00;;;;;;4944903;28;20447;-86
2023/08/25 05:31:55;;;;;;;13.70;5.50;;;20.50;99.90;;;;;;4931075;29;20532;-87
2023/08/25 05:34:21;;;;;;;6.70;5.47;;;22.00;1.00;;;;;;4928567;29;20458;-88
2023/08/25 05:36:46;;;;;;;6.17;4.73;;;23.20;99.90;;;;;;4933657;29;20675;-87
2023/08/25 05:39:12;;;;;;;7.03;5.00;;;24.20;99.90;;;;;;4933731;29;20229;-88
2023/08/25 05:41:38;;;;;;;7.67;4.63;;;25.00;99.90;;;;;;4934013;29;20314;-87
2023/08/25 05:44:04;;;;;;;7.23;4.57;;;26.10;99.90;;;;;;4931138;29;20422;-88
2023/08/25 05:46:30;;;;;;;7.07;4.20;;;26.60;59.60;;;;;;4913516;29;20434;-88
2023/08/25 05:48:56;;;;;;;4.10;3.60;;;27.70;1.00;;;;;;4915816;29;20193;-88
2023/08/25 05:51:23;;;;;;;5.60;4.73;;;28.50;1.00;;;;;;4934335;29;20544;-88
2023/08/25 05:53:49;;;;;;;7.17;3.80;;;28.70;1.00;;;;;;4945345;28;20983;-88
2023/08/25 05:56:14;;;;;;;7.27;3.87;;;29.20;1.00;;;;;;4928977;29;20461;-86
2023/08/25 05:58:41;;;;;;;7.80;3.80;;;28.70;1.00;;;;;;4914334;29;20206;-87
2023/08/25 06:01:07;;;;;;;5.07;3.77;;;27.70;1.00;;;;;;4930295;29;20225;-85
2023/08/25 06:03:33;;;;;;;13.20;4.33;;;29.00;1.00;;;;;;4923059;29;20422;-87
2023/08/25 06:05:59;;;;;;;8.80;4.40;;;28.50;1.00;;;;;;4917366;29;20186;-87
2023/08/25 06:08:24;;;;;;;5.87;3.70;;;27.00;1.00;;;;;;4930217;29;20197;-87
2023/08/25 06:10:52;;;;;;;10.40;4.17;;;25.90;1.00;;;;;;4924691;29;20737;-86
2023/08/25 06:13:18;;;;;;;8.77;4.03;;;25.10;1.00;;;;;;4932255;29;20197;-85
2023/08/25 06:15:44;;;;;;;6.60;3.67;;;24.60;39.70;;;;;;4926387;29;20875;-87
2023/08/25 06:18:10;;;;;;;7.23;4.20;;;24.30;99.90;;;;;;4933983;29;20510;-86
2023/08/25 06:20:55;;;;;;;12.10;4.87;;;24.20;99.90;;;;;;4931998;29;20437;-87
2023/08/25 06:23:21;;;;;;;7.80;3.37;;;26.10;99.90;;;;;;4924986;29;20188;-86
2023/08/25 06:25:50;;;;;;;7.57;3.90;;;28.10;1.00;;;;;;4926951;29;20819;-88
2023/08/25 06:28:15;;;;;;;9.03;4.10;;;27.40;1.00;;;;;;4931178;29;20193;-87
2023/08/25 06:30:42;;;;;;;10.20;4.20;;;26.90;1.00;;;;;;4936963;29;20448;-87
2023/08/25 06:33:09;;;;;;;7.83;4.43;;;27.30;1.00;;;;;;4935701;29;20208;-86
2023/08/25 06:35:36;;;;;;;7.40;5.03;;;29.60;1.00;;;;;;4936408;29;20439;-86
2023/08/25 06:38:03;;;;;;;10.10;4.10;;;29.70;1.00;;;;;;4935061;29;20477;-87
2023/08/25 06:40:29;;;;;;;10.60;4.27;;;29.20;1.00;;;;;;4930954;29;20479;-84
2023/08/25 06:42:54;;;;;;;7.30;4.20;;;28.30;1.00;;;;;;4934006;29;20471;-85
2023/08/25 06:45:21;;;;;;;5.37;3.70;;;27.50;1.00;;;;;;4940446;29;20186;-87
2023/08/25 06:47:49;;;;;;;9.97;4.50;;;26.70;1.00;;;;;;4941927;29;20189;-85
2023/08/25 06:50:15;;;;;;;8.40;4.30;;;26.20;1.00;;;;;;4938781;29;20422;-87
2023/08/25 06:52:40;;;;;;;7.87;5.20;;;25.50;1.00;;;;;;4935133;29;20480;-86
2023/08/25 06:55:06;;;;;;;7.80;4.43;;;25.30;65.60;;;;;;4936773;29;20698;-86
2023/08/25 06:57:34;;;;;;;13.97;5.23;;;24.90;99.90;;;;;;4935593;29;20223;-85
2023/08/25 06:59:59;;;;;;;13.73;4.90;;;24.30;99.90;;;;;;4937813;29;20700;-85
2023/08/25 07:02:26;;;;;;;8.77;5.00;;;23.70;1.00;;;;;;4931030;29;20474;-85
2023/08/25 07:04:52;;;;;;;14.17;7.23;;;23.30;1.00;;;;;;4931380;29;20276;-84
2023/08/25 07:07:25;;;;;;;17.17;9.17;;;22.90;1.00;;;;;;4924239;29;20528;-84
2023/08/25 07:09:51;;;;;;;7.30;6.10;;;22.50;91.80;;;;;;4937683;29;20176;-82
2023/08/25 07:12:16;;;;;;;11.57;7.10;;;22.20;1.00;;;;;;4940031;29;20880;-83
2023/08/25 07:14:43;;;;;;;13.23;8.40;;;21.70;36.30;;;;;;4927011;29;20205;-85
2023/08/25 07:17:09;;;;;;;15.00;9.17;;;21.40;99.90;;;;;;4927544;29;20563;-84
2023/08/25 07:19:34;;;;;;;11.43;8.73;;;21.00;1.00;;;;;;4936708;29;20443;-84
2023/08/25 07:22:00;;;;;;;12.00;8.60;;;20.80;1.00;;;;;;4934963;29;20214;-85
2023/08/25 07:24:25;;;;;;;43.83;11.37;;;20.70;1.00;;;;;;4938631;29;20578;-84
2023/08/25 07:26:51;;;;;;;17.33;10.00;;;20.70;1.00;;;;;;4945746;29;20221;-84
2023/08/25 07:29:16;;;;;;;18.07;11.40;;;20.60;1.00;;;;;;4938635;29;20214;-84
2023/08/25 07:31:42;;;;;;;14.37;9.50;;;20.50;1.00;;;;;;4928162;29;20209;-83
2023/08/25 07:34:07;;;;;;;15.40;10.67;;;20.40;1.00;;;;;;4921984;29;20276;-83
2023/08/25 07:36:33;;;;;;;16.17;11.90;;;20.30;1.00;;;;;;4934373;29;20310;-83
2023/08/25 07:38:58;;;;;;;17.97;10.80;;;20.30;1.00;;;;;;4931028;29;20877;-83
2023/08/25 07:41:24;;;;;;;9.93;7.10;;;20.20;1.00;;;;;;4934149;29;20223;-83
2023/08/25 07:43:49;;;;;;;10.03;5.83;;;20.20;1.00;;;;;;4935235;29;20188;-84
2023/08/25 07:46:15;;;;;;;75.33;9.57;;;20.10;1.00;;;;;;4939817;29;20185;-84
2023/08/25 07:48:41;;;;;;;11.60;5.57;;;20.10;1.00;;;;;;4935460;29;21986;-83
2023/08/25 07:51:06;;;;;;;11.90;6.67;;;20.00;1.00;;;;;;4951678;28;20239;-82
2023/08/25 07:53:31;;;;;;;72.70;10.33;;;19.70;1.00;;;;;;4936367;29;20268;-82
2023/08/25 07:55:58;;;;;;;50.50;9.07;;;19.60;1.00;;;;;;4935614;29;20200;-85
2023/08/25 07:58:24;;;;;;;14.50;8.90;;;19.40;44.60;;;;;;4935366;29;20694;-86
2023/08/25 08:00:50;;;;;;;19.80;10.70;;;19.50;66.70;;;;;;4934253;28;20547;-90
2023/08/25 08:03:15;;;;;;;257.63;23.97;;;19.40;89.60;;;;;;4933245;29;20500;-87
2023/08/25 08:05:42;;;;;;;29.47;11.30;;;19.40;96.30;;;;;;4924087;29;20189;-87
2023/08/25 08:08:09;;;;;;;247.70;19.87;;;19.10;96.60;;;;;;4934238;29;20189;-86
2023/08/25 08:10:35;;;;;;;22.17;6.77;;;19.00;98.10;;;;;;4923816;29;20440;-87
2023/08/25 08:13:02;;;;;;;15.63;6.23;;;19.00;99.90;;;;;;4934760;29;20918;-87
2023/08/25 08:15:27;;;;;;;15.03;5.83;;;18.90;99.90;;;;;;4935501;29;20815;-87
2023/08/25 08:17:53;;;;;;;14.03;5.70;;;19.00;99.90;;;;;;4934239;29;20461;-87
2023/08/25 08:20:18;;;;;;;16.77;6.57;;;19.20;99.90;;;;;;4925181;29;20726;-88
2023/08/25 08:22:45;;;;;;;15.20;7.53;;;19.30;99.90;;;;;;4933582;29;20708;-86
2023/08/25 08:25:11;;;;;;;12.53;7.90;;;19.20;99.90;;;;;;4933961;29;20283;-87
2023/08/25 08:27:39;;;;;;;10.50;6.77;;;19.10;91.40;;;;;;4933489;29;21057;-88
2023/08/25 08:30:05;;;;;;;12.10;7.20;;;19.10;91.70;;;;;;4933528;29;20451;-88
2023/08/25 08:32:31;;;;;;;12.23;7.10;;;19.00;80.10;;;;;;4933131;29;20520;-88
2023/08/25 08:34:56;;;;;;;10.80;6.47;;;19.00;92.40;;;;;;4932559;29;20946;-88
2023/08/25 08:37:22;;;;;;;9.43;5.33;;;19.20;95.10;;;;;;4933667;29;20244;-89
2023/08/25 08:39:47;;;;;;;8.03;5.70;;;19.50;93.10;;;;;;4935870;29;20182;-89
2023/08/25 08:42:14;;;;;;;8.23;4.87;;;19.90;92.50;;;;;;4929370;29;20730;-87
2023/08/25 08:44:48;;;;;;;8.33;4.47;;;20.30;91.80;;;;;;4931119;29;20179;-89
2023/08/25 08:47:16;;;;;;;8.53;5.30;;;20.60;74.70;;;;;;4936451;29;20564;-88
2023/08/25 08:49:43;;;;;;;12.23;4.80;;;20.90;71.20;;;;;;4932883;29;20433;-89
2023/08/25 08:52:09;;;;;;;8.37;5.00;;;21.40;60.30;;;;;;4929819;29;20467;-88
2023/08/25 08:54:40;;;;;;;7.70;5.47;;;21.30;26.70;;;;;;4934919;29;20439;-89
2023/08/25 08:57:06;;;;;;;7.97;5.10;;;21.00;11.60;;;;;;4931278;29;20825;-89
2023/08/25 08:59:31;;;;;;;6.53;4.33;;;20.80;1.00;;;;;;4933852;29;22030;-89
2023/08/25 09:01:58;;;;;;;8.00;4.63;;;21.00;12.40;;;;;;4931360;29;20218;-90
2023/08/25 09:04:24;;;;;;;9.43;4.40;;;21.50;31.70;;;;;;4933365;29;20602;-89
2023/08/25 09:06:51;;;;;;;6.90;3.70;;;21.70;4.60;;;;;;4928185;29;20525;-90
2023/08/25 09:09:20;;;;;;;6.73;3.90;;;22.00;11.10;;;;;;4928172;29;22176;-87
2023/08/25 09:11:49;;;;;;;8.47;4.40;;;22.40;1.60;;;;;;4931096;29;20467;-90
2023/08/25 09:14:26;;;;;;;7.63;4.30;;;22.40;1.00;;;;;;4929331;29;20445;-88
2023/08/25 09:16:56;;;;;;;8.90;4.13;;;22.60;1.00;;;;;;4931756;29;20453;-89
2023/08/25 09:19:22;;;;;;;4.70;2.90;;;23.00;1.00;;;;;;4937003;29;20988;-89
2023/08/25 09:21:48;;;;;;;3.70;2.53;;;23.20;1.00;;;;;;4933297;29;20998;-90
2023/08/25 09:24:19;;;;;;;3.73;2.80;;;23.10;1.00;;;;;;4933171;29;20442;-89
2023/08/25 09:26:47;;;;;;;3.93;2.83;;;22.80;99.90;;;;;;4926957;29;20806;-89
2023/08/25 09:29:12;;;;;;;5.30;3.10;;;22.50;1.00;;;;;;4932041;29;21014;-89
2023/08/25 09:31:38;;;;;;;3.77;2.27;;;22.20;1.00;;;;;;4929617;29;20489;-90
2023/08/25 09:34:08;;;;;;;4.43;2.77;;;22.10;1.00;;;;;;4922864;29;20703;-88
2023/08/25 09:36:34;;;;;;;3.20;2.50;;;21.90;1.00;;;;;;4931936;29;20192;-88
2023/08/25 09:39:01;;;;;;;4.70;2.10;;;21.70;1.00;;;;;;4931980;29;20476;-88
2023/08/25 09:41:28;;;;;;;4.17;2.50;;;21.50;1.00;;;;;;4934257;29;20997;-87
2023/08/25 09:44:02;;;;;;;3.43;2.50;;;21.20;1.00;;;;;;4931950;29;20780;-89
2023/08/25 09:46:29;;;;;;;4.77;2.80;;;21.10;1.00;;;;;;4930803;29;20487;-88
2023/08/25 09:49:06;;;;;;;5.30;2.87;;;20.90;1.00;;;;;;4930898;29;20437;-88
2023/08/25 09:51:40;;;;;;;4.80;3.10;;;20.80;1.00;;;;;;4934266;29;20476;-88
2023/08/25 09:54:12;;;;;;;4.43;3.43;;;20.70;10.80;;;;;;4938172;29;20447;-89
2023/08/25 09:56:39;;;;;;;6.27;3.83;;;20.70;28.10;;;;;;4925174;29;20444;-88
2023/08/25 09:59:06;;;;;;;32.80;4.67;;;20.60;21.80;;;;;;4927946;29;20568;-87
2023/08/25 10:01:36;;;;;;;7.57;4.50;;;20.40;23.50;;;;;;4911663;29;20743;-89
2023/08/25 10:04:04;;;;;;;16.43;5.23;;;20.30;45.20;;;;;;4926515;29;20451;-87
2023/08/25 10:06:31;;;;;;;32.50;5.93;;;20.10;59.20;;;;;;4931483;29;20440;-88
2023/08/25 10:08:58;;;;;;;32.47;5.60;;;19.80;82.20;;;;;;4931270;29;20492;-86
2023/08/25 10:11:28;;;;;;;7.80;4.13;;;19.80;92.70;;;;;;4931198;29;20474;-88
2023/08/25 10:13:55;;;;;;;7.87;4.37;;;19.50;95.30;;;;;;4932522;29;20440;-87
2023/08/25 10:16:24;;;;;;;9.20;5.13;;;19.60;99.90;;;;;;4930694;29;21112;-87
2023/08/25 10:18:54;;;;;;;34.77;7.00;;;19.50;99.90;;;;;;4915947;29;20497;-87
2023/08/25 10:21:20;;;;;;;23.33;5.93;;;19.30;99.90;;;;;;4916847;28;20462;-86
2023/08/25 10:23:48;;;;;;;9.43;6.17;;;19.40;99.90;;;;;;4920694;29;20476;-86
2023/08/25 10:26:14;;;;;;;11.40;6.20;;;19.30;99.90;;;;;;4927081;29;21017;-86
2023/08/25 10:28:40;;;;;;;13.80;7.40;;;19.20;99.90;;;;;;4925421;29;20474;-87
2023/08/25 10:31:06;;;;;;;17.23;8.43;;;19.30;99.90;;;;;;4927724;29;20498;-86
2023/08/25 10:33:51;;;;;;;13.17;8.97;;;19.40;99.90;;;;;;4928900;29;20200;-86
2023/08/25 10:36:22;;;;;;;19.13;10.50;;;19.60;99.90;;;;;;4921549;29;20450;-86
2023/08/25 10:42:30;;;;;;;23.20;12.53;;;20.30;99.90;;;;;;4926628;29;20831;-87
2023/08/25 10:45:00;;;;;;;23.43;12.70;;;20.70;60.50;;;;;;4926655;29;20464;-88
2023/08/25 10:47:27;;;;;;;26.90;12.80;;;21.30;49.40;;;;;;4926545;29;20472;-87
2023/08/25 10:49:54;;;;;;;24.77;12.87;;;22.00;1.00;;;;;;4930167;29;20449;-86
2023/08/25 10:52:20;;;;;;;24.67;12.60;;;22.40;1.00;;;;;;4925578;28;20941;-87
2023/08/25 10:54:47;;;;;;;16.27;11.13;;;22.50;1.00;;;;;;4927961;29;21243;-87
2023/08/25 10:57:25;;;;;;;14.33;10.57;;;22.50;1.00;;;;;;4929142;29;20954;-87
2023/08/25 10:59:54;;;;;;;18.13;10.87;;;22.00;1.00;;;;;;4926144;29;20491;-87
2023/08/25 11:02:34;;;;;;;18.67;11.30;;;21.90;1.00;;;;;;4944638;28;20571;-86
2023/08/25 11:05:36;;;;;;;18.73;11.60;;;21.90;5.70;;;;;;4927159;29;20448;-86
2023/08/25 11:08:03;;;;;;;16.53;10.70;;;22.00;16.40;;;;;;4889292;29;20569;-87
2023/08/25 11:10:31;;;;;;;20.63;11.57;;;21.90;18.00;;;;;;4913273;29;20453;-86
2023/08/25 11:12:59;;;;;;;20.13;12.10;;;21.70;16.60;;;;;;4929753;29;20448;-86
2023/08/25 11:15:25;;;;;;;16.50;10.33;;;21.60;23.70;;;;;;4927955;29;20443;-86
2023/08/25 11:17:51;;;;;;;14.33;11.80;;;21.60;39.80;;;;;;4930387;29;20482;-89
2023/08/25 11:20:17;;;;;;;21.90;13.03;;;21.60;28.20;;;;;;4929801;29;20832;-89
2023/08/25 11:22:52;;;;;;;27.93;13.13;;;21.80;12.90;;;;;;4930847;29;20232;-88
2023/08/25 11:25:17;;;;;;;20.90;13.30;;;21.90;1.00;;;;;;4932802;29;20736;-86
2023/08/25 11:27:43;;;;;;;19.80;12.70;;;22.20;1.00;;;;;;4925486;28;20464;-87
2023/08/25 11:30:10;;;;;;;15.23;10.70;;;23.10;1.00;;;;;;4929124;29;20189;-88
2023/08/25 11:32:36;;;;;;;18.33;10.43;;;24.20;1.00;;;;;;4930348;29;20293;-88
2023/08/25 11:35:05;;;;;;;15.37;9.43;;;25.50;1.00;;;;;;4930717;29;20434;-87
2023/08/25 11:37:30;;;;;;;9.80;6.90;;;26.00;1.00;;;;;;4929868;29;20479;-87
2023/08/25 11:39:56;;;;;;;7.80;5.50;;;26.10;99.90;;;;;;4930965;29;20437;-86
2023/08/25 11:42:22;;;;;;;8.17;4.83;;;25.70;99.90;;;;;;4933791;29;20272;-89
2023/08/25 11:44:47;;;;;;;4.23;3.10;;;25.40;99.90;;;;;;4933594;29;20601;-87
2023/08/25 11:47:13;;;;;;;3.40;2.87;;;25.30;99.90;;;;;;4935012;29;20686;-88
2023/08/25 11:50:19;;;;;;;3.90;2.67;;;25.10;99.90;;;;;;4933815;29;20245;-88
2023/08/25 11:52:48;;;;;;;3.83;2.77;;;24.70;99.90;;;;;;5010771;23;20243;-86
2023/08/25 11:55:15;;;;;;;2.50;2.30;;;24.30;1.00;;;;;;4977548;28;20430;-88
2023/08/25 11:57:53;;;;;;;2.73;2.43;;;24.10;1.00;;;;;;4987764;28;20525;-87
2023/08/25 12:00:19;;;;;;;3.37;1.93;;;23.90;1.00;;;;;;4969788;28;20445;-89
2023/08/25 12:02:56;;;;;;;4.20;2.67;;;23.60;1.00;;;;;;4952804;28;20461;-86
2023/08/25 12:05:22;;;;;;;4.20;2.80;;;23.40;1.00;;;;;;4953554;28;20221;-86
2023/08/25 12:07:48;;;;;;;5.30;2.70;;;23.20;1.00;;;;;;4950805;28;20965;-87
2023/08/25 12:10:18;;;;;;;49.90;6.20;;;23.00;1.00;;;;;;4953041;28;20436;-87
2023/08/25 12:12:45;;;;;;;7.83;3.20;;;22.90;1.00;;;;;;4952871;28;20207;-86
2023/08/25 12:15:11;;;;;;;7.73;3.90;;;22.60;1.00;;;;;;4951097;28;20777;-87
2023/08/25 12:17:39;;;;;;;4.47;4.00;;;22.40;1.00;;;;;;4949590;28;20467;-87
2023/08/25 12:20:15;;;;;;;10.60;4.00;;;22.20;1.00;;;;;;4953075;28;20200;-88
2023/08/25 12:23:02;;;;;;;6.27;4.10;;;22.20;1.00;;;;;;4953219;28;20458;-88
2023/08/25 12:25:30;;;;;;;5.83;3.90;;;22.20;1.00;;;;;;4952794;28;20443;-89
2023/08/25 12:27:55;;;;;;;28.83;6.00;;;22.10;1.00;;;;;;4953212;28;20471;-88
2023/08/25 12:30:21;;;;;;;11.13;4.77;;;22.00;1.00;;;;;;4955601;28;20980;-89
2023/08/25 12:32:47;;;;;;;7.27;5.00;;;22.00;9.40;;;;;;4952092;28;20214;-88
2023/08/25 12:35:12;;;;;;;7.43;5.47;;;22.00;21.40;;;;;;4947266;28;20200;-90
2023/08/25 12:37:38;;;;;;;6.60;5.20;;;22.20;24.40;;;;;;4948582;28;20210;-89
2023/08/25 12:40:07;;;;;;;6.30;4.77;;;23.20;9.70;;;;;;4949400;28;20565;-89
2023/08/25 12:42:32;;;;;;;5.10;4.60;;;24.30;1.00;;;;;;4951110;29;20205;-88
2023/08/25 12:44:58;;;;;;;5.87;4.70;;;25.30;1.00;;;;;;4952037;28;20516;-88
2023/08/25 12:47:24;;;;;;;5.47;3.60;;;25.90;1.00;;;;;;4952445;28;20181;-89
2023/08/25 12:49:50;;;;;;;6.77;3.47;;;26.20;99.90;;;;;;4952280;28;20180;-88
2023/08/25 12:52:16;;;;;;;5.97;4.20;;;26.40;99.90;;;;;;4943804;28;20511;-89
2023/08/25 12:54:43;;;;;;;6.97;4.17;;;27.40;1.00;;;;;;4951711;28;20742;-88